Flight Track Log - Related Links

Times and Time Zones

All times are in EDT time to prevent confusion due to time zone crossing. See the N441R flight status page for this flight to view local times or setup timezone preferences in your user account.

Time Position Orientation Groundspeed Altitude Reporting Facility
EDT Latitude Longitude Course Direction KTS km/h feet Rate Location/Type
Mon 07:59:49 37.3253 -81.1617 32° Northeast 164 304 5.200  Level Indianapolis Center
Mon 08:00:51 37.3661 -81.1297 32° Northeast 178 330 7.000 1.984 Climbing Indianapolis Center
Mon 08:01:53 37.4206 -81.0789 37° Northeast 207 383 9.300 2.098 Climbing Indianapolis Center
Mon 08:02:54 37.4656 -81.0347 38° Northeast 212 393 11.300 1.951 Climbing Indianapolis Center
Mon 08:03:56 37.5175 -81.0192 13° North 195 360 13.300 1.951 Climbing Indianapolis Center
Mon 08:04:57 37.5714 -80.9997 16° North 204 378 15.300 2.049 Climbing Indianapolis Center
Mon 08:05:59 37.6344 -80.9756 17° North 201 372 17.500 1.887 Climbing Indianapolis Center
Mon 08:07:01 37.6847 -80.9544 18° North 197 365 19.200 1.707 Climbing Indianapolis Center
Mon 08:08:02 37.7394 -80.9350 16° North 204 378 21.000 1.659 Climbing Indianapolis Center
Mon 08:09:04 37.7961 -80.9114 18° North 215 398 22.600 1.500 Climbing Indianapolis Center
Mon 08:10:06 37.8603 -80.8881 16° North 225 417 24.100 1.366 Climbing Indianapolis Center
Mon 08:11:07 37.9214 -80.8631 18° North 230 426 25.400 1.220 Climbing Indianapolis Center
Mon 08:12:09 37.9836 -80.8386 17° North 233 431 26.600 774 Climbing Indianapolis Center
Mon 08:13:11 38.0650 -80.8069 17° North 252 467 27.000 195 Climbing Indianapolis Center
Mon 08:14:12 38.1419 -80.7761 17° North 282 523 27.000  Level Indianapolis Center
Mon 08:15:14 38.2214 -80.7428 18° North 296 549 27.000  Level Indianapolis Center
Mon 08:16:16 38.3014 -80.7119 17° North 300 555 27.000  Level Indianapolis Center
Mon 08:17:17 38.3811 -80.6797 18° North 300 555 27.000  Level Indianapolis Center
Mon 08:18:19 38.4617 -80.6483 17° North 303 562 27.000  Level Indianapolis Center
Mon 08:19:21 38.5419 -80.6167 17° North 303 562 27.000  Level Indianapolis Center
Mon 08:20:22 38.6381 -80.5767 18° North 303 562 27.000  Level Indianapolis Center
Mon 08:21:24 38.7186 -80.5444 17° North 305 565 27.000  Level Indianapolis Center
Mon 08:22:26 38.8003 -80.5119 17° North 307 568 27.000  Level Indianapolis Center
Mon 08:23:28 38.8814 -80.4797 17° North 306 566 27.000  Level Indianapolis Center
Mon 08:24:30 38.9622 -80.4456 18° North 305 565 27.000  Level Indianapolis Center
Mon 08:25:32 39.0422 -80.4131 18° North 303 562 27.000  Level Indianapolis Center
Mon 08:26:33 39.1222 -80.3806 17° North 302 560 27.000  Level Indianapolis Center
Mon 08:27:35 39.2181 -80.3406 18° North 302 560 27.000  Level Indianapolis Center
Mon 08:28:37 39.2981 -80.3097 17° North 300 555 27.000  Level Indianapolis Center
Mon 08:30:09 39.4267 -80.2578 17° North 298 552 27.000  Level Cleveland Center
Mon 08:31:09 39.5081 -80.2253 17° North 298 552 27.000  Level Cleveland Center
Mon 08:32:09 39.5869 -80.1953 16° North 298 552 27.000  Level Cleveland Center
Mon 08:33:09 39.6683 -80.1597 19° North 298 552 27.000  Level Cleveland Center
Mon 08:34:09 39.7472 -80.1267 18° North 298 552 27.000  Level Cleveland Center
Mon 08:35:09 39.8264 -80.0939 18° North 298 552 27.000  Level Cleveland Center
Mon 08:36:09 39.9056 -80.0608 18° North 298 552 27.000  Level Cleveland Center
Mon 08:37:09 39.9844 -80.0275 18° North 298 552 27.000  Level Cleveland Center
Mon 08:38:09 40.0572 -79.9972 18° North 298 552 27.000  Level Cleveland Center
Mon 08:39:09 40.1364 -79.9639 18° North 298 552 27.000  Level Cleveland Center
Mon 08:40:09 40.2153 -79.9306 18° North 298 552 27.000  Level Cleveland Center
Mon 08:41:09 40.2944 -79.8972 18° North 298 552 27.000  Level Cleveland Center
Mon 08:42:09 40.3756 -79.8636 18° North 298 552 27.000  Level Cleveland Center
Mon 08:43:09 40.4544 -79.8300 18° North 298 552 27.000  Level Cleveland Center
Mon 08:44:09 40.5356 -79.7936 19° North 298 552 27.000  Level Cleveland Center
Mon 08:45:09 40.6144 -79.7625 17° North 298 552 27.000  Level Cleveland Center
Mon 08:46:09 40.6936 -79.7286 18° North 298 552 27.000  Level Cleveland Center
Mon 08:47:09 40.7744 -79.6919 19° North 303 562 27.000  Level Cleveland Center
Mon 08:48:09 40.8536 -79.6581 18° North 298 552 27.000  Level Cleveland Center
Mon 08:49:09 40.9325 -79.6267 17° North 298 552 27.000  Level Cleveland Center
Mon 08:50:09 41.0114 -79.5897 19° North 298 552 27.000  Level Cleveland Center
Mon 08:51:09 41.0925 -79.5556 18° North 298 552 27.000 -100 Level Cleveland Center
Mon 08:52:09 41.1733 -79.5211 18° North 298 552 26.800 -700 Descending Cleveland Center
Mon 08:53:09 41.2564 -79.4839 19° North 303 562 25.600 -1.150 Descending Cleveland Center
Mon 08:54:09 41.3436 -79.4464 18° North 309 573 24.500 -800 Descending Cleveland Center
Mon 08:55:09 41.4350 -79.4061 18° North 309 573 24.000 -250 Descending Cleveland Center
Mon 08:56:09 41.5158 -79.3714 18° North 304 563 24.000 -300 Level Cleveland Center
Mon 08:57:09 41.5989 -79.3364 17° North 304 563 23.400 -900 Descending Cleveland Center
Mon 08:58:09 41.6819 -79.2986 19° North 304 563 22.200 -1.300 Descending Cleveland Center
Mon 08:59:09 41.7669 -79.2608 18° North 309 573 20.800 -1.350 Descending Cleveland Center
Mon 09:00:09 41.8519 -79.2228 18° North 309 573 19.500 -1.400 Descending Cleveland Center
Mon 09:01:09 41.9328 -79.1875 18° North 314 581 18.000 -1.400 Descending Cleveland Center
Mon 09:02:09 42.0156 -79.1494 19° North 309 573 16.700 -1.350 Descending Cleveland Center
Mon 09:03:09 42.0964 -79.1142 18° North 304 563 15.300 -1.350 Descending Cleveland Center
Mon 09:04:09 42.1772 -79.0758 19° North 298 552 14.000 -1.300 Descending Cleveland Center
Mon 09:05:09 42.2539 -79.0403 19° North 298 552 12.700 -1.250 Descending Cleveland Center
Mon 09:06:09 42.3306 -79.0075 18° North 298 552 11.500 -850 Descending Cleveland Center
Mon 09:07:09 42.4053 -78.9747 18° North 287 531 11.000 -700 Descending Cleveland Center
Mon 09:08:09 42.4797 -78.9392 19° North 281 520 10.100 -1.100 Descending Cleveland Center
Mon 09:09:09 42.5503 -78.9119 16° North 275 509 8.800 -1.250 Descending Cleveland Center
Mon 09:10:09 42.6144 -78.8847 17° North 268 496 7.600 -1.250 Descending Cleveland Center
Mon 09:11:09 42.6806 -78.8519 20° North 262 486 6.300 -1.350 Descending Cleveland Center
Mon 09:12:09 42.7511 -78.8217 17° North 244 452 4.900 -1.200 Descending Cleveland Center
Mon 09:13:09 42.8003 -78.7694 38° Northeast 225 417 3.900 -876 Descending Cleveland Center
Mon 09:15:14 42.8833 -78.6833 37° Northeast 151 280 2.200 -853 Descending Buffalo TRACON
Mon 09:16:26 42.9167 -78.7000 340° North 102 188 1.100 -917 Descending Buffalo TRACON
Mon 09:18:00 42.9333 -78.7167 26° Northeast  Level FlightAware Approximate
Mon 09:25:00 42.9404 -78.7306 26° Northeast  Level Estimated

Login

Don't have an account? Register now (free) for customized features, flight alerts, and more!